Terminal Aerodrome Forecast
Issued by NWS

Current Version | Previous Version | Text Only | Print | Product List | Glossary On
Versions: 1 2 3 4 5 6 7 8 9 10 11 12 13 14 15 16 17 18 19 20 21
428
FTUS42 KFFC 090522
TAFFTY
TAF
KFTY 090522Z 0906/1006 33007KT P6SM SCT250
     FM091500 33010G18KT P6SM FEW250
     FM092200 34008KT P6SM SKC
     FM100000 34004KT P6SM SKC=

USA.gov is the U.S. government's official web portal to all federal, state and local government web resources and services.